sensor_id;sensor_type;location;lat;lon;timestamp;P1;durP1;ratioP1;P2;durP2;ratioP2
36653;SDS011;22650;49.350;20.898;2024-02-14T00:00:48;6.70;;;3.95;;
36653;SDS011;22650;49.350;20.898;2024-02-14T00:03:22;5.88;;;3.42;;
36653;SDS011;22650;49.350;20.898;2024-02-14T00:05:56;7.47;;;3.75;;
36653;SDS011;22650;49.350;20.898;2024-02-14T00:08:29;6.28;;;3.35;;
36653;SDS011;22650;49.350;20.898;2024-02-14T00:11:03;7.68;;;3.70;;
36653;SDS011;22650;49.350;20.898;2024-02-14T00:13:37;5.25;;;3.50;;
36653;SDS011;22650;49.350;20.898;2024-02-14T00:16:12;7.00;;;3.92;;
36653;SDS011;22650;49.350;20.898;2024-02-14T00:18:45;5.88;;;3.10;;
36653;SDS011;22650;49.350;20.898;2024-02-14T00:21:19;7.03;;;3.83;;
36653;SDS011;22650;49.350;20.898;2024-02-14T00:23:53;4.55;;;2.95;;
36653;SDS011;22650;49.350;20.898;2024-02-14T00:26:26;6.50;;;3.42;;
36653;SDS011;22650;49.350;20.898;2024-02-14T00:29:00;6.55;;;3.45;;
36653;SDS011;22650;49.350;20.898;2024-02-14T00:31:35;6.35;;;2.97;;
36653;SDS011;22650;49.350;20.898;2024-02-14T00:34:18;7.00;;;3.33;;
36653;SDS011;22650;49.350;20.898;2024-02-14T00:36:53;5.93;;;3.42;;
36653;SDS011;22650;49.350;20.898;2024-02-14T00:39:26;5.32;;;2.97;;
36653;SDS011;22650;49.350;20.898;2024-02-14T00:42:00;5.88;;;2.92;;
36653;SDS011;22650;49.350;20.898;2024-02-14T00:44:34;5.57;;;3.17;;
36653;SDS011;22650;49.350;20.898;2024-02-14T00:47:09;6.47;;;3.63;;
36653;SDS011;22650;49.350;20.898;2024-02-14T00:49:42;7.18;;;3.08;;
36653;SDS011;22650;49.350;20.898;2024-02-14T00:52:16;6.10;;;3.13;;
36653;SDS011;22650;49.350;20.898;2024-02-14T00:54:50;5.50;;;3.05;;
36653;SDS011;22650;49.350;20.898;2024-02-14T00:57:23;4.57;;;3.17;;
36653;SDS011;22650;49.350;20.898;2024-02-14T00:59:58;5.85;;;3.63;;
36653;SDS011;22650;49.350;20.898;2024-02-14T01:02:37;6.30;;;3.53;;
36653;SDS011;22650;49.350;20.898;2024-02-14T01:05:11;6.88;;;3.25;;
36653;SDS011;22650;49.350;20.898;2024-02-14T01:07:44;6.50;;;3.65;;
36653;SDS011;22650;49.350;20.898;2024-02-14T01:10:19;5.30;;;3.20;;
36653;SDS011;22650;49.350;20.898;2024-02-14T01:12:53;4.80;;;3.00;;
36653;SDS011;22650;49.350;20.898;2024-02-14T01:15:27;5.85;;;2.97;;
36653;SDS011;22650;49.350;20.898;2024-02-14T01:18:02;5.93;;;3.38;;
36653;SDS011;22650;49.350;20.898;2024-02-14T01:23:10;5.72;;;3.10;;
36653;SDS011;22650;49.350;20.898;2024-02-14T01:25:52;4.20;;;2.90;;
36653;SDS011;22650;49.350;20.898;2024-02-14T01:28:26;3.95;;;2.53;;
36653;SDS011;22650;49.350;20.898;2024-02-14T01:30:59;3.95;;;2.70;;
36653;SDS011;22650;49.350;20.898;2024-02-14T01:33:34;4.32;;;2.72;;
36653;SDS011;22650;49.350;20.898;2024-02-14T01:36:08;5.70;;;2.60;;
36653;SDS011;22650;49.350;20.898;2024-02-14T01:38:42;5.10;;;3.05;;
36653;SDS011;22650;49.350;20.898;2024-02-14T01:41:16;3.67;;;2.22;;
36653;SDS011;22650;49.350;20.898;2024-02-14T01:43:50;4.97;;;2.80;;
36653;SDS011;22650;49.350;20.898;2024-02-14T01:46:24;5.15;;;3.00;;
36653;SDS011;22650;49.350;20.898;2024-02-14T01:49:01;4.70;;;2.80;;
36653;SDS011;22650;49.350;20.898;2024-02-14T01:51:36;4.70;;;2.95;;
36653;SDS011;22650;49.350;20.898;2024-02-14T01:54:10;3.92;;;2.45;;
36653;SDS011;22650;49.350;20.898;2024-02-14T01:56:45;6.75;;;2.50;;
36653;SDS011;22650;49.350;20.898;2024-02-14T01:59:19;4.93;;;2.60;;
36653;SDS011;22650;49.350;20.898;2024-02-14T02:01:53;5.00;;;2.50;;
36653;SDS011;22650;49.350;20.898;2024-02-14T02:04:28;3.47;;;2.35;;
36653;SDS011;22650;49.350;20.898;2024-02-14T02:07:02;3.47;;;2.20;;
36653;SDS011;22650;49.350;20.898;2024-02-14T02:09:36;3.58;;;2.20;;
36653;SDS011;22650;49.350;20.898;2024-02-14T02:12:10;4.50;;;2.45;;
36653;SDS011;22650;49.350;20.898;2024-02-14T02:15:04;4.28;;;2.20;;
36653;SDS011;22650;49.350;20.898;2024-02-14T02:17:59;4.30;;;2.60;;
36653;SDS011;22650;49.350;20.898;2024-02-14T02:20:54;4.00;;;2.40;;
36653;SDS011;22650;49.350;20.898;2024-02-14T02:23:30;6.90;;;3.15;;
36653;SDS011;22650;49.350;20.898;2024-02-14T02:26:05;5.72;;;2.45;;
36653;SDS011;22650;49.350;20.898;2024-02-14T02:28:59;4.40;;;2.45;;
36653;SDS011;22650;49.350;20.898;2024-02-14T02:31:33;5.10;;;2.30;;
36653;SDS011;22650;49.350;20.898;2024-02-14T02:34:07;4.97;;;2.53;;
36653;SDS011;22650;49.350;20.898;2024-02-14T02:36:43;3.85;;;2.05;;
36653;SDS011;22650;49.350;20.898;2024-02-14T02:39:37;3.35;;;2.10;;
36653;SDS011;22650;49.350;20.898;2024-02-14T02:42:31;3.78;;;1.83;;
36653;SDS011;22650;49.350;20.898;2024-02-14T02:45:24;5.15;;;2.00;;
36653;SDS011;22650;49.350;20.898;2024-02-14T02:48:18;3.58;;;1.80;;
36653;SDS011;22650;49.350;20.898;2024-02-14T02:51:01;4.05;;;2.00;;
36653;SDS011;22650;49.350;20.898;2024-02-14T02:54:13;5.25;;;1.95;;
36653;SDS011;22650;49.350;20.898;2024-02-14T02:57:08;4.53;;;2.53;;
36653;SDS011;22650;49.350;20.898;2024-02-14T02:59:42;3.63;;;2.53;;
36653;SDS011;22650;49.350;20.898;2024-02-14T03:02:16;3.20;;;1.85;;
36653;SDS011;22650;49.350;20.898;2024-02-14T03:05:08;3.08;;;2.17;;
36653;SDS011;22650;49.350;20.898;2024-02-14T03:08:09;3.80;;;2.00;;
36653;SDS011;22650;49.350;20.898;2024-02-14T03:11:05;3.63;;;1.70;;
36653;SDS011;22650;49.350;20.898;2024-02-14T03:14:00;3.88;;;1.80;;
36653;SDS011;22650;49.350;20.898;2024-02-14T03:16:54;3.83;;;1.50;;
36653;SDS011;22650;49.350;20.898;2024-02-14T03:19:27;3.25;;;1.70;;
36653;SDS011;22650;49.350;20.898;2024-02-14T03:22:02;2.72;;;1.40;;
36653;SDS011;22650;49.350;20.898;2024-02-14T03:24:37;4.40;;;2.25;;
36653;SDS011;22650;49.350;20.898;2024-02-14T03:27:11;3.42;;;2.00;;
36653;SDS011;22650;49.350;20.898;2024-02-14T03:29:46;5.25;;;2.50;;
36653;SDS011;22650;49.350;20.898;2024-02-14T03:32:19;2.92;;;1.98;;
36653;SDS011;22650;49.350;20.898;2024-02-14T03:37:28;3.55;;;2.00;;
36653;SDS011;22650;49.350;20.898;2024-02-14T03:40:02;3.67;;;1.83;;
36653;SDS011;22650;49.350;20.898;2024-02-14T03:42:36;3.47;;;1.58;;
36653;SDS011;22650;49.350;20.898;2024-02-14T03:45:13;3.72;;;1.95;;
36653;SDS011;22650;49.350;20.898;2024-02-14T03:47:47;3.40;;;1.48;;
36653;SDS011;22650;49.350;20.898;2024-02-14T03:50:21;5.45;;;2.22;;
36653;SDS011;22650;49.350;20.898;2024-02-14T03:52:54;3.53;;;2.30;;
36653;SDS011;22650;49.350;20.898;2024-02-14T03:55:28;3.83;;;2.05;;
36653;SDS011;22650;49.350;20.898;2024-02-14T03:58:02;5.43;;;2.33;;
36653;SDS011;22650;49.350;20.898;2024-02-14T04:00:38;3.78;;;2.05;;
36653;SDS011;22650;49.350;20.898;2024-02-14T04:05:45;3.85;;;1.80;;
36653;SDS011;22650;49.350;20.898;2024-02-14T04:08:19;4.28;;;2.25;;
36653;SDS011;22650;49.350;20.898;2024-02-14T04:10:53;4.07;;;1.90;;
36653;SDS011;22650;49.350;20.898;2024-02-14T04:13:27;3.08;;;1.73;;
36653;SDS011;22650;49.350;20.898;2024-02-14T04:16:03;4.10;;;1.95;;
36653;SDS011;22650;49.350;20.898;2024-02-14T04:18:45;10.10;;;7.20;;
36653;SDS011;22650;49.350;20.898;2024-02-14T04:21:19;20.42;;;17.13;;
36653;SDS011;22650;49.350;20.898;2024-02-14T04:23:53;30.02;;;21.65;;
36653;SDS011;22650;49.350;20.898;2024-02-14T04:26:27;27.08;;;16.50;;
36653;SDS011;22650;49.350;20.898;2024-02-14T04:29:00;7.35;;;4.30;;
36653;SDS011;22650;49.350;20.898;2024-02-14T04:31:36;13.30;;;8.07;;
36653;SDS011;22650;49.350;20.898;2024-02-14T04:34:11;18.35;;;11.93;;
36653;SDS011;22650;49.350;20.898;2024-02-14T04:36:45;14.02;;;8.20;;
36653;SDS011;22650;49.350;20.898;2024-02-14T04:39:19;10.20;;;6.85;;
36653;SDS011;22650;49.350;20.898;2024-02-14T04:41:52;10.63;;;5.80;;
36653;SDS011;22650;49.350;20.898;2024-02-14T04:44:33;7.47;;;4.07;;
36653;SDS011;22650;49.350;20.898;2024-02-14T04:47:08;5.80;;;3.03;;
36653;SDS011;22650;49.350;20.898;2024-02-14T04:49:42;5.97;;;3.45;;
36653;SDS011;22650;49.350;20.898;2024-02-14T04:52:16;6.65;;;3.72;;
36653;SDS011;22650;49.350;20.898;2024-02-14T04:54:50;6.47;;;3.25;;
36653;SDS011;22650;49.350;20.898;2024-02-14T04:57:24;4.85;;;2.92;;
36653;SDS011;22650;49.350;20.898;2024-02-14T04:59:57;3.83;;;2.55;;
36653;SDS011;22650;49.350;20.898;2024-02-14T05:02:32;3.80;;;2.40;;
36653;SDS011;22650;49.350;20.898;2024-02-14T05:05:06;4.45;;;2.88;;
36653;SDS011;22650;49.350;20.898;2024-02-14T05:07:47;3.88;;;2.38;;
36653;SDS011;22650;49.350;20.898;2024-02-14T05:10:20;5.40;;;3.05;;
36653;SDS011;22650;49.350;20.898;2024-02-14T05:12:54;4.18;;;2.58;;
36653;SDS011;22650;49.350;20.898;2024-02-14T05:15:28;4.28;;;2.45;;
36653;SDS011;22650;49.350;20.898;2024-02-14T05:18:04;7.20;;;2.45;;
36653;SDS011;22650;49.350;20.898;2024-02-14T05:20:38;3.17;;;2.03;;
36653;SDS011;22650;49.350;20.898;2024-02-14T05:23:12;7.32;;;3.90;;
36653;SDS011;22650;49.350;20.898;2024-02-14T05:25:45;5.07;;;1.92;;
36653;SDS011;22650;49.350;20.898;2024-02-14T05:28:20;4.22;;;2.15;;
36653;SDS011;22650;49.350;20.898;2024-02-14T05:30:53;3.35;;;2.17;;
36653;SDS011;22650;49.350;20.898;2024-02-14T05:33:37;3.45;;;2.08;;
36653;SDS011;22650;49.350;20.898;2024-02-14T05:36:11;2.80;;;1.33;;
36653;SDS011;22650;49.350;20.898;2024-02-14T05:38:45;3.17;;;1.90;;
36653;SDS011;22650;49.350;20.898;2024-02-14T05:41:18;4.18;;;2.00;;
36653;SDS011;22650;49.350;20.898;2024-02-14T05:43:52;4.20;;;1.45;;
36653;SDS011;22650;49.350;20.898;2024-02-14T05:46:26;3.28;;;2.00;;
36653;SDS011;22650;49.350;20.898;2024-02-14T05:49:01;4.13;;;2.33;;
36653;SDS011;22650;49.350;20.898;2024-02-14T05:51:35;5.38;;;2.90;;
36653;SDS011;22650;49.350;20.898;2024-02-14T05:54:08;5.32;;;2.80;;
36653;SDS011;22650;49.350;20.898;2024-02-14T05:56:42;6.07;;;3.35;;
36653;SDS011;22650;49.350;20.898;2024-02-14T05:59:16;6.05;;;2.17;;
36653;SDS011;22650;49.350;20.898;2024-02-14T06:01:50;3.83;;;2.30;;
36653;SDS011;22650;49.350;20.898;2024-02-14T06:04:25;4.47;;;2.45;;
36653;SDS011;22650;49.350;20.898;2024-02-14T06:06:59;5.10;;;2.33;;
36653;SDS011;22650;49.350;20.898;2024-02-14T06:09:32;5.10;;;2.70;;
36653;SDS011;22650;49.350;20.898;2024-02-14T06:12:06;3.20;;;1.90;;
36653;SDS011;22650;49.350;20.898;2024-02-14T06:14:40;3.88;;;2.33;;
36653;SDS011;22650;49.350;20.898;2024-02-14T06:17:14;4.45;;;2.40;;
36653;SDS011;22650;49.350;20.898;2024-02-14T06:19:49;3.45;;;2.72;;
36653;SDS011;22650;49.350;20.898;2024-02-14T06:22:23;5.75;;;3.20;;
36653;SDS011;22650;49.350;20.898;2024-02-14T06:24:56;6.07;;;3.08;;
36653;SDS011;22650;49.350;20.898;2024-02-14T06:27:30;8.00;;;3.05;;
36653;SDS011;22650;49.350;20.898;2024-02-14T06:30:05;6.18;;;3.42;;
36653;SDS011;22650;49.350;20.898;2024-02-14T06:32:39;5.97;;;2.88;;
36653;SDS011;22650;49.350;20.898;2024-02-14T06:35:15;5.97;;;2.92;;
36653;SDS011;22650;49.350;20.898;2024-02-14T06:37:51;4.70;;;3.00;;
36653;SDS011;22650;49.350;20.898;2024-02-14T06:40:34;7.07;;;3.65;;
36653;SDS011;22650;49.350;20.898;2024-02-14T06:43:08;9.52;;;3.95;;
36653;SDS011;22650;49.350;20.898;2024-02-14T06:45:41;10.48;;;3.90;;
36653;SDS011;22650;49.350;20.898;2024-02-14T06:48:25;8.13;;;4.32;;
36653;SDS011;22650;49.350;20.898;2024-02-14T06:51:00;6.35;;;4.00;;
36653;SDS011;22650;49.350;20.898;2024-02-14T06:53:33;8.02;;;4.28;;
36653;SDS011;22650;49.350;20.898;2024-02-14T06:56:07;7.20;;;4.32;;
36653;SDS011;22650;49.350;20.898;2024-02-14T06:58:41;6.80;;;4.50;;
36653;SDS011;22650;49.350;20.898;2024-02-14T07:01:15;9.27;;;5.78;;
36653;SDS011;22650;49.350;20.898;2024-02-14T07:03:51;7.53;;;4.93;;
36653;SDS011;22650;49.350;20.898;2024-02-14T07:06:25;7.63;;;4.40;;
36653;SDS011;22650;49.350;20.898;2024-02-14T07:08:59;8.85;;;4.18;;
36653;SDS011;22650;49.350;20.898;2024-02-14T07:11:33;9.63;;;4.65;;
36653;SDS011;22650;49.350;20.898;2024-02-14T07:14:09;7.15;;;3.90;;
36653;SDS011;22650;49.350;20.898;2024-02-14T07:16:42;6.10;;;3.20;;
36653;SDS011;22650;49.350;20.898;2024-02-14T07:19:16;5.43;;;2.80;;
36653;SDS011;22650;49.350;20.898;2024-02-14T07:21:51;6.22;;;3.28;;
36653;SDS011;22650;49.350;20.898;2024-02-14T07:24:24;6.32;;;3.30;;
36653;SDS011;22650;49.350;20.898;2024-02-14T07:26:58;5.10;;;3.10;;
36653;SDS011;22650;49.350;20.898;2024-02-14T07:29:31;6.15;;;3.15;;
36653;SDS011;22650;49.350;20.898;2024-02-14T07:32:05;5.65;;;2.55;;
36653;SDS011;22650;49.350;20.898;2024-02-14T07:34:40;5.45;;;2.67;;
36653;SDS011;22650;49.350;20.898;2024-02-14T07:37:15;5.22;;;2.50;;
36653;SDS011;22650;49.350;20.898;2024-02-14T07:39:51;4.78;;;2.67;;
36653;SDS011;22650;49.350;20.898;2024-02-14T07:42:25;2.97;;;1.80;;
36653;SDS011;22650;49.350;20.898;2024-02-14T07:44:59;3.95;;;1.90;;
36653;SDS011;22650;49.350;20.898;2024-02-14T07:47:36;2.90;;;1.83;;
36653;SDS011;22650;49.350;20.898;2024-02-14T07:50:12;3.65;;;2.08;;
36653;SDS011;22650;49.350;20.898;2024-02-14T07:52:47;4.90;;;2.20;;
36653;SDS011;22650;49.350;20.898;2024-02-14T07:55:20;3.47;;;1.60;;
36653;SDS011;22650;49.350;20.898;2024-02-14T07:57:54;1.98;;;1.27;;
36653;SDS011;22650;49.350;20.898;2024-02-14T08:00:27;1.98;;;1.30;;
36653;SDS011;22650;49.350;20.898;2024-02-14T08:03:01;2.38;;;1.30;;
36653;SDS011;22650;49.350;20.898;2024-02-14T08:05:37;2.35;;;1.20;;
36653;SDS011;22650;49.350;20.898;2024-02-14T08:10:47;4.88;;;1.70;;
36653;SDS011;22650;49.350;20.898;2024-02-14T08:13:21;1.95;;;1.33;;
36653;SDS011;22650;49.350;20.898;2024-02-14T08:15:54;2.42;;;1.40;;
36653;SDS011;22650;49.350;20.898;2024-02-14T08:18:30;2.38;;;1.40;;
36653;SDS011;22650;49.350;20.898;2024-02-14T08:21:03;2.22;;;1.30;;
36653;SDS011;22650;49.350;20.898;2024-02-14T08:23:39;2.17;;;1.15;;
36653;SDS011;22650;49.350;20.898;2024-02-14T08:26:15;2.17;;;1.42;;
36653;SDS011;22650;49.350;20.898;2024-02-14T08:28:49;2.42;;;1.05;;
36653;SDS011;22650;49.350;20.898;2024-02-14T08:31:23;2.53;;;1.75;;
36653;SDS011;22650;49.350;20.898;2024-02-14T08:33:56;1.90;;;1.20;;
36653;SDS011;22650;49.350;20.898;2024-02-14T08:36:30;2.35;;;1.50;;
36653;SDS011;22650;49.350;20.898;2024-02-14T08:39:07;1.85;;;0.98;;
36653;SDS011;22650;49.350;20.898;2024-02-14T08:41:43;2.33;;;1.33;;
36653;SDS011;22650;49.350;20.898;2024-02-14T08:44:18;1.60;;;1.02;;
36653;SDS011;22650;49.350;20.898;2024-02-14T08:46:52;2.15;;;1.25;;
36653;SDS011;22650;49.350;20.898;2024-02-14T08:49:26;3.13;;;1.38;;
36653;SDS011;22650;49.350;20.898;2024-02-14T08:52:00;2.53;;;1.20;;
36653;SDS011;22650;49.350;20.898;2024-02-14T08:54:35;5.63;;;2.45;;
36653;SDS011;22650;49.350;20.898;2024-02-14T08:57:09;19.67;;;8.32;;
36653;SDS011;22650;49.350;20.898;2024-02-14T08:59:42;20.40;;;11.13;;
36653;SDS011;22650;49.350;20.898;2024-02-14T09:02:18;4.18;;;1.48;;
36653;SDS011;22650;49.350;20.898;2024-02-14T09:04:54;5.45;;;2.58;;
36653;SDS011;22650;49.350;20.898;2024-02-14T09:07:27;7.43;;;4.10;;
36653;SDS011;22650;49.350;20.898;2024-02-14T09:10:04;3.42;;;1.30;;
36653;SDS011;22650;49.350;20.898;2024-02-14T09:12:39;3.33;;;1.90;;
36653;SDS011;22650;49.350;20.898;2024-02-14T09:15:13;2.47;;;1.00;;
36653;SDS011;22650;49.350;20.898;2024-02-14T09:17:47;2.35;;;1.05;;
36653;SDS011;22650;49.350;20.898;2024-02-14T09:20:20;3.05;;;1.40;;
36653;SDS011;22650;49.350;20.898;2024-02-14T09:22:54;2.65;;;1.00;;
36653;SDS011;22650;49.350;20.898;2024-02-14T09:25:30;3.40;;;1.70;;
36653;SDS011;22650;49.350;20.898;2024-02-14T09:28:04;3.65;;;1.52;;
36653;SDS011;22650;49.350;20.898;2024-02-14T09:30:38;2.05;;;1.10;;
36653;SDS011;22650;49.350;20.898;2024-02-14T09:33:12;2.65;;;1.10;;
36653;SDS011;22650;49.350;20.898;2024-02-14T09:35:46;3.80;;;1.05;;
36653;SDS011;22650;49.350;20.898;2024-02-14T09:38:20;2.63;;;1.27;;
36653;SDS011;22650;49.350;20.898;2024-02-14T09:40:56;2.50;;;1.35;;
36653;SDS011;22650;49.350;20.898;2024-02-14T09:43:37;3.50;;;1.23;;
36653;SDS011;22650;49.350;20.898;2024-02-14T09:46:13;1.90;;;1.10;;
36653;SDS011;22650;49.350;20.898;2024-02-14T09:48:47;1.77;;;1.25;;
36653;SDS011;22650;49.350;20.898;2024-02-14T09:51:21;3.25;;;1.50;;
36653;SDS011;22650;49.350;20.898;2024-02-14T09:53:58;1.92;;;1.23;;
36653;SDS011;22650;49.350;20.898;2024-02-14T09:56:35;2.42;;;1.25;;
36653;SDS011;22650;49.350;20.898;2024-02-14T09:59:09;2.03;;;1.00;;
36653;SDS011;22650;49.350;20.898;2024-02-14T10:01:43;2.85;;;1.20;;
36653;SDS011;22650;49.350;20.898;2024-02-14T10:04:18;1.70;;;1.05;;
36653;SDS011;22650;49.350;20.898;2024-02-14T10:06:55;2.83;;;1.20;;
36653;SDS011;22650;49.350;20.898;2024-02-14T10:09:29;2.15;;;1.10;;
36653;SDS011;22650;49.350;20.898;2024-02-14T10:12:05;2.20;;;1.15;;
36653;SDS011;22650;49.350;20.898;2024-02-14T10:14:40;1.98;;;1.20;;
36653;SDS011;22650;49.350;20.898;2024-02-14T10:17:17;2.92;;;1.35;;
36653;SDS011;22650;49.350;20.898;2024-02-14T10:19:55;2.88;;;1.33;;
36653;SDS011;22650;49.350;20.898;2024-02-14T10:22:32;1.88;;;0.95;;
36653;SDS011;22650;49.350;20.898;2024-02-14T10:25:07;1.73;;;0.90;;
36653;SDS011;22650;49.350;20.898;2024-02-14T10:27:42;1.60;;;1.00;;
36653;SDS011;22650;49.350;20.898;2024-02-14T10:30:18;3.55;;;1.10;;
36653;SDS011;22650;49.350;20.898;2024-02-14T10:32:53;2.47;;;1.45;;
36653;SDS011;22650;49.350;20.898;2024-02-14T10:35:33;2.03;;;1.00;;
36653;SDS011;22650;49.350;20.898;2024-02-14T10:38:09;2.25;;;1.05;;
36653;SDS011;22650;49.350;20.898;2024-02-14T10:40:43;3.45;;;1.00;;
36653;SDS011;22650;49.350;20.898;2024-02-14T10:43:22;1.67;;;0.90;;
36653;SDS011;22650;49.350;20.898;2024-02-14T10:45:56;3.50;;;0.98;;
36653;SDS011;22650;49.350;20.898;2024-02-14T10:48:33;2.17;;;0.90;;
36653;SDS011;22650;49.350;20.898;2024-02-14T10:51:11;1.63;;;1.00;;
36653;SDS011;22650;49.350;20.898;2024-02-14T10:53:47;1.75;;;0.95;;
36653;SDS011;22650;49.350;20.898;2024-02-14T10:56:24;2.30;;;1.20;;
36653;SDS011;22650;49.350;20.898;2024-02-14T10:59:06;1.92;;;1.10;;
36653;SDS011;22650;49.350;20.898;2024-02-14T11:01:43;1.70;;;1.00;;
36653;SDS011;22650;49.350;20.898;2024-02-14T11:04:17;1.35;;;0.88;;
36653;SDS011;22650;49.350;20.898;2024-02-14T11:06:52;2.58;;;1.02;;
36653;SDS011;22650;49.350;20.898;2024-02-14T11:09:31;2.08;;;1.33;;
36653;SDS011;22650;49.350;20.898;2024-02-14T11:12:07;2.10;;;1.08;;
36653;SDS011;22650;49.350;20.898;2024-02-14T11:14:43;1.75;;;1.13;;
36653;SDS011;22650;49.350;20.898;2024-02-14T11:17:18;1.60;;;1.00;;
36653;SDS011;22650;49.350;20.898;2024-02-14T11:19:58;3.63;;;1.20;;
36653;SDS011;22650;49.350;20.898;2024-02-14T11:22:34;2.78;;;1.15;;
36653;SDS011;22650;49.350;20.898;2024-02-14T11:25:08;1.95;;;1.13;;
36653;SDS011;22650;49.350;20.898;2024-02-14T11:27:47;2.78;;;1.10;;
36653;SDS011;22650;49.350;20.898;2024-02-14T11:30:30;2.13;;;1.25;;
36653;SDS011;22650;49.350;20.898;2024-02-14T11:33:16;3.15;;;1.35;;
36653;SDS011;22650;49.350;20.898;2024-02-14T11:35:51;1.98;;;1.00;;
36653;SDS011;22650;49.350;20.898;2024-02-14T11:38:25;1.98;;;1.00;;
36653;SDS011;22650;49.350;20.898;2024-02-14T11:41:01;2.22;;;1.20;;
36653;SDS011;22650;49.350;20.898;2024-02-14T11:43:35;1.42;;;0.93;;
36653;SDS011;22650;49.350;20.898;2024-02-14T11:46:12;1.65;;;1.00;;
36653;SDS011;22650;49.350;20.898;2024-02-14T11:48:46;1.38;;;1.00;;
36653;SDS011;22650;49.350;20.898;2024-02-14T11:51:21;1.80;;;1.15;;
36653;SDS011;22650;49.350;20.898;2024-02-14T11:53:57;2.00;;;1.10;;
36653;SDS011;22650;49.350;20.898;2024-02-14T11:56:36;2.22;;;1.20;;
36653;SDS011;22650;49.350;20.898;2024-02-14T11:59:10;1.83;;;1.02;;
36653;SDS011;22650;49.350;20.898;2024-02-14T12:01:48;1.75;;;1.02;;
36653;SDS011;22650;49.350;20.898;2024-02-14T12:04:23;2.58;;;1.10;;
36653;SDS011;22650;49.350;20.898;2024-02-14T12:06:57;2.58;;;1.08;;
36653;SDS011;22650;49.350;20.898;2024-02-14T12:09:31;2.67;;;1.10;;
36653;SDS011;22650;49.350;20.898;2024-02-14T12:12:05;1.40;;;1.00;;
36653;SDS011;22650;49.350;20.898;2024-02-14T12:14:39;2.20;;;1.20;;
36653;SDS011;22650;49.350;20.898;2024-02-14T12:17:14;3.10;;;1.15;;
36653;SDS011;22650;49.350;20.898;2024-02-14T12:19:50;3.15;;;1.10;;
36653;SDS011;22650;49.350;20.898;2024-02-14T12:22:25;1.80;;;1.20;;
36653;SDS011;22650;49.350;20.898;2024-02-14T12:24:58;3.30;;;1.30;;
36653;SDS011;22650;49.350;20.898;2024-02-14T12:27:32;1.98;;;1.00;;
36653;SDS011;22650;49.350;20.898;2024-02-14T12:30:06;2.47;;;1.08;;
36653;SDS011;22650;49.350;20.898;2024-02-14T12:32:43;2.05;;;1.10;;
36653;SDS011;22650;49.350;20.898;2024-02-14T12:35:16;1.58;;;1.08;;
36653;SDS011;22650;49.350;20.898;2024-02-14T12:37:50;1.70;;;1.20;;
36653;SDS011;22650;49.350;20.898;2024-02-14T12:40:25;2.55;;;1.23;;
36653;SDS011;22650;49.350;20.898;2024-02-14T12:42:59;1.95;;;1.05;;
36653;SDS011;22650;49.350;20.898;2024-02-14T12:45:33;2.95;;;1.20;;
36653;SDS011;22650;49.350;20.898;2024-02-14T12:48:08;2.67;;;1.30;;
36653;SDS011;22650;49.350;20.898;2024-02-14T12:50:43;2.10;;;1.50;;
36653;SDS011;22650;49.350;20.898;2024-02-14T12:53:20;1.75;;;0.95;;
36653;SDS011;22650;49.350;20.898;2024-02-14T12:55:54;2.42;;;1.27;;
36653;SDS011;22650;49.350;20.898;2024-02-14T12:58:27;2.38;;;1.23;;
36653;SDS011;22650;49.350;20.898;2024-02-14T13:01:02;3.05;;;1.05;;
36653;SDS011;22650;49.350;20.898;2024-02-14T13:03:39;1.70;;;1.00;;
36653;SDS011;22650;49.350;20.898;2024-02-14T13:06:12;2.13;;;1.20;;
36653;SDS011;22650;49.350;20.898;2024-02-14T13:11:20;1.83;;;1.02;;
36653;SDS011;22650;49.350;20.898;2024-02-14T13:13:54;2.40;;;1.35;;
36653;SDS011;22650;49.350;20.898;2024-02-14T13:16:27;2.28;;;1.23;;
36653;SDS011;22650;49.350;20.898;2024-02-14T13:19:02;2.53;;;1.30;;
36653;SDS011;22650;49.350;20.898;2024-02-14T13:21:37;1.80;;;1.02;;
36653;SDS011;22650;49.350;20.898;2024-02-14T13:24:12;2.22;;;1.38;;
36653;SDS011;22650;49.350;20.898;2024-02-14T13:26:46;3.75;;;1.30;;
36653;SDS011;22650;49.350;20.898;2024-02-14T13:29:19;2.10;;;1.17;;
36653;SDS011;22650;49.350;20.898;2024-02-14T13:31:53;2.40;;;1.38;;
36653;SDS011;22650;49.350;20.898;2024-02-14T13:34:28;2.22;;;1.20;;
36653;SDS011;22650;49.350;20.898;2024-02-14T13:37:02;4.78;;;1.15;;
36653;SDS011;22650;49.350;20.898;2024-02-14T13:39:35;2.63;;;1.25;;
36653;SDS011;22650;49.350;20.898;2024-02-14T13:42:09;1.80;;;0.93;;
36653;SDS011;22650;49.350;20.898;2024-02-14T13:44:43;1.80;;;0.90;;
36653;SDS011;22650;49.350;20.898;2024-02-14T13:47:17;2.75;;;1.17;;
36653;SDS011;22650;49.350;20.898;2024-02-14T13:49:53;2.20;;;0.95;;
36653;SDS011;22650;49.350;20.898;2024-02-14T13:52:27;1.80;;;0.80;;
36653;SDS011;22650;49.350;20.898;2024-02-14T13:55:01;2.03;;;1.10;;
36653;SDS011;22650;49.350;20.898;2024-02-14T13:57:37;2.20;;;1.10;;
36653;SDS011;22650;49.350;20.898;2024-02-14T14:00:11;1.70;;;1.08;;
36653;SDS011;22650;49.350;20.898;2024-02-14T14:02:45;2.65;;;1.13;;
36653;SDS011;22650;49.350;20.898;2024-02-14T14:05:20;1.80;;;1.10;;
36653;SDS011;22650;49.350;20.898;2024-02-14T14:07:54;2.67;;;1.05;;
36653;SDS011;22650;49.350;20.898;2024-02-14T14:10:30;5.03;;;3.05;;
36653;SDS011;22650;49.350;20.898;2024-02-14T14:13:04;3.92;;;1.70;;
36653;SDS011;22650;49.350;20.898;2024-02-14T14:15:38;3.20;;;1.50;;
36653;SDS011;22650;49.350;20.898;2024-02-14T14:18:12;2.25;;;1.38;;
36653;SDS011;22650;49.350;20.898;2024-02-14T14:20:47;2.50;;;1.38;;
36653;SDS011;22650;49.350;20.898;2024-02-14T14:23:21;6.30;;;2.13;;
36653;SDS011;22650;49.350;20.898;2024-02-14T14:25:54;10.75;;;4.65;;
36653;SDS011;22650;49.350;20.898;2024-02-14T14:28:28;5.32;;;2.47;;
36653;SDS011;22650;49.350;20.898;2024-02-14T14:31:03;4.88;;;2.20;;
36653;SDS011;22650;49.350;20.898;2024-02-14T14:33:37;5.70;;;2.53;;
36653;SDS011;22650;49.350;20.898;2024-02-14T14:36:12;14.18;;;5.85;;
36653;SDS011;22650;49.350;20.898;2024-02-14T14:38:46;17.52;;;9.88;;
36653;SDS011;22650;49.350;20.898;2024-02-14T14:41:20;2.35;;;1.33;;
36653;SDS011;22650;49.350;20.898;2024-02-14T14:43:53;2.33;;;1.60;;
36653;SDS011;22650;49.350;20.898;2024-02-14T14:46:27;2.28;;;1.55;;
36653;SDS011;22650;49.350;20.898;2024-02-14T14:49:02;3.33;;;2.35;;
36653;SDS011;22650;49.350;20.898;2024-02-14T14:51:37;2.58;;;1.55;;
36653;SDS011;22650;49.350;20.898;2024-02-14T14:54:11;3.30;;;1.73;;
36653;SDS011;22650;49.350;20.898;2024-02-14T14:56:45;2.70;;;1.60;;
36653;SDS011;22650;49.350;20.898;2024-02-14T14:59:20;2.55;;;1.65;;
36653;SDS011;22650;49.350;20.898;2024-02-14T15:01:54;2.35;;;1.38;;
36653;SDS011;22650;49.350;20.898;2024-02-14T15:04:28;3.25;;;1.60;;
36653;SDS011;22650;49.350;20.898;2024-02-14T15:07:03;2.75;;;1.73;;
36653;SDS011;22650;49.350;20.898;2024-02-14T15:09:37;2.10;;;1.45;;
36653;SDS011;22650;49.350;20.898;2024-02-14T15:12:10;2.30;;;1.33;;
36653;SDS011;22650;49.350;20.898;2024-02-14T15:14:45;3.67;;;2.20;;
36653;SDS011;22650;49.350;20.898;2024-02-14T15:17:19;2.95;;;1.88;;
36653;SDS011;22650;49.350;20.898;2024-02-14T15:19:54;4.15;;;1.73;;
36653;SDS011;22650;49.350;20.898;2024-02-14T15:22:29;2.83;;;2.00;;
36653;SDS011;22650;49.350;20.898;2024-02-14T15:27:37;5.68;;;1.60;;
36653;SDS011;22650;49.350;20.898;2024-02-14T15:30:16;5.75;;;2.55;;
36653;SDS011;22650;49.350;20.898;2024-02-14T15:33:07;11.77;;;6.60;;
36653;SDS011;22650;49.350;20.898;2024-02-14T15:35:56;8.82;;;5.50;;
36653;SDS011;22650;49.350;20.898;2024-02-14T15:38:33;12.90;;;6.57;;